sensor_id;sensor_type;location;lat;lon;timestamp;temperature;humidity
72772;SHT30;60894;42.544;1.516;2024-02-26T00:02:09;4.65;88.80
72772;SHT30;60894;42.544;1.516;2024-02-26T00:04:38;4.64;88.68
72772;SHT30;60894;42.544;1.516;2024-02-26T00:07:05;4.63;89.73
72772;SHT30;60894;42.544;1.516;2024-02-26T00:09:32;4.60;89.61
72772;SHT30;60894;42.544;1.516;2024-02-26T00:12:01;4.56;89.02
72772;SHT30;60894;42.544;1.516;2024-02-26T00:14:29;4.53;89.72
72772;SHT30;60894;42.544;1.516;2024-02-26T00:16:59;4.60;89.72
72772;SHT30;60894;42.544;1.516;2024-02-26T00:19:26;4.58;89.54
72772;SHT30;60894;42.544;1.516;2024-02-26T00:21:54;4.57;89.87
72772;SHT30;60894;42.544;1.516;2024-02-26T00:24:21;4.50;90.56
72772;SHT30;60894;42.544;1.516;2024-02-26T00:26:51;4.46;90.54
72772;SHT30;60894;42.544;1.516;2024-02-26T00:29:20;4.43;90.88
72772;SHT30;60894;42.544;1.516;2024-02-26T00:31:47;4.52;90.91
72772;SHT30;60894;42.544;1.516;2024-02-26T00:34:14;4.50;89.34
72772;SHT30;60894;42.544;1.516;2024-02-26T00:36:41;4.40;89.34
72772;SHT30;60894;42.544;1.516;2024-02-26T00:39:11;4.52;90.47
72772;SHT30;60894;42.544;1.516;2024-02-26T00:41:39;4.56;89.88
72772;SHT30;60894;42.544;1.516;2024-02-26T00:44:06;4.52;90.34
72772;SHT30;60894;42.544;1.516;2024-02-26T00:46:34;4.49;90.08
72772;SHT30;60894;42.544;1.516;2024-02-26T00:49:00;4.47;89.87
72772;SHT30;60894;42.544;1.516;2024-02-26T00:51:28;4.42;89.27
72772;SHT30;60894;42.544;1.516;2024-02-26T00:53:55;4.46;88.78
72772;SHT30;60894;42.544;1.516;2024-02-26T00:56:23;4.54;89.73
72772;SHT30;60894;42.544;1.516;2024-02-26T00:58:50;4.60;88.88
72772;SHT30;60894;42.544;1.516;2024-02-26T01:01:18;4.61;89.00
72772;SHT30;60894;42.544;1.516;2024-02-26T01:03:45;4.58;89.55
72772;SHT30;60894;42.544;1.516;2024-02-26T01:06:12;4.71;89.22
72772;SHT30;60894;42.544;1.516;2024-02-26T01:08:39;4.63;90.24
72772;SHT30;60894;42.544;1.516;2024-02-26T01:11:06;4.64;89.57
72772;SHT30;60894;42.544;1.516;2024-02-26T01:13:34;4.52;90.53
72772;SHT30;60894;42.544;1.516;2024-02-26T01:16:02;4.57;90.28
72772;SHT30;60894;42.544;1.516;2024-02-26T01:18:29;4.64;90.32
72772;SHT30;60894;42.544;1.516;2024-02-26T01:20:55;4.60;89.85
72772;SHT30;60894;42.544;1.516;2024-02-26T01:23:22;4.64;90.31
72772;SHT30;60894;42.544;1.516;2024-02-26T01:25:49;4.67;89.93
72772;SHT30;60894;42.544;1.516;2024-02-26T01:28:17;4.73;88.72
72772;SHT30;60894;42.544;1.516;2024-02-26T01:30:45;4.68;89.44
72772;SHT30;60894;42.544;1.516;2024-02-26T01:33:12;4.60;89.79
72772;SHT30;60894;42.544;1.516;2024-02-26T01:35:39;4.56;89.95
72772;SHT30;60894;42.544;1.516;2024-02-26T01:38:06;4.63;89.72
72772;SHT30;60894;42.544;1.516;2024-02-26T01:40:33;4.61;89.57
72772;SHT30;60894;42.544;1.516;2024-02-26T01:43:00;4.67;89.53
72772;SHT30;60894;42.544;1.516;2024-02-26T01:45:27;4.64;88.71
72772;SHT30;60894;42.544;1.516;2024-02-26T01:47:55;4.65;88.78
72772;SHT30;60894;42.544;1.516;2024-02-26T01:50:24;4.63;89.07
72772;SHT30;60894;42.544;1.516;2024-02-26T01:52:51;4.67;89.73
72772;SHT30;60894;42.544;1.516;2024-02-26T01:55:19;4.57;89.48
72772;SHT30;60894;42.544;1.516;2024-02-26T01:57:48;4.68;89.63
72772;SHT30;60894;42.544;1.516;2024-02-26T02:00:18;4.60;89.85
72772;SHT30;60894;42.544;1.516;2024-02-26T02:02:45;4.70;89.83
72772;SHT30;60894;42.544;1.516;2024-02-26T02:05:16;4.58;89.52
72772;SHT30;60894;42.544;1.516;2024-02-26T02:07:43;4.53;89.26
72772;SHT30;60894;42.544;1.516;2024-02-26T02:10:10;4.61;89.20
72772;SHT30;60894;42.544;1.516;2024-02-26T02:12:40;4.52;88.88
72772;SHT30;60894;42.544;1.516;2024-02-26T02:15:07;4.49;89.39
72772;SHT30;60894;42.544;1.516;2024-02-26T02:17:34;4.34;90.13
72772;SHT30;60894;42.544;1.516;2024-02-26T02:20:02;4.44;89.63
72772;SHT30;60894;42.544;1.516;2024-02-26T02:22:33;4.44;89.89
72772;SHT30;60894;42.544;1.516;2024-02-26T02:25:00;4.30;90.24
72772;SHT30;60894;42.544;1.516;2024-02-26T02:27:28;4.32;89.99
72772;SHT30;60894;42.544;1.516;2024-02-26T02:29:56;4.28;90.17
72772;SHT30;60894;42.544;1.516;2024-02-26T02:32:24;4.33;90.02
72772;SHT30;60894;42.544;1.516;2024-02-26T02:34:52;4.33;89.79
72772;SHT30;60894;42.544;1.516;2024-02-26T02:37:19;4.40;89.45
72772;SHT30;60894;42.544;1.516;2024-02-26T02:39:47;4.47;88.86
72772;SHT30;60894;42.544;1.516;2024-02-26T02:42:15;4.54;89.38
72772;SHT30;60894;42.544;1.516;2024-02-26T02:44:41;4.57;89.43
72772;SHT30;60894;42.544;1.516;2024-02-26T02:47:10;4.60;88.92
72772;SHT30;60894;42.544;1.516;2024-02-26T02:49:37;4.63;88.92
72772;SHT30;60894;42.544;1.516;2024-02-26T02:52:04;4.60;88.89
72772;SHT30;60894;42.544;1.516;2024-02-26T02:54:31;4.58;87.98
72772;SHT30;60894;42.544;1.516;2024-02-26T02:56:59;4.49;87.94
72772;SHT30;60894;42.544;1.516;2024-02-26T02:59:27;4.70;87.82
72772;SHT30;60894;42.544;1.516;2024-02-26T03:01:54;4.70;89.53
72772;SHT30;60894;42.544;1.516;2024-02-26T03:04:21;4.61;90.06
72772;SHT30;60894;42.544;1.516;2024-02-26T03:06:48;4.54;89.76
72772;SHT30;60894;42.544;1.516;2024-02-26T03:09:14;4.54;89.10
72772;SHT30;60894;42.544;1.516;2024-02-26T03:11:41;4.54;89.27
72772;SHT30;60894;42.544;1.516;2024-02-26T03:14:10;4.56;90.11
72772;SHT30;60894;42.544;1.516;2024-02-26T03:16:37;4.49;90.82
72772;SHT30;60894;42.544;1.516;2024-02-26T03:19:04;4.50;90.88
72772;SHT30;60894;42.544;1.516;2024-02-26T03:21:31;4.49;90.54
72772;SHT30;60894;42.544;1.516;2024-02-26T03:23:58;4.52;89.87
72772;SHT30;60894;42.544;1.516;2024-02-26T03:26:24;4.39;89.73
72772;SHT30;60894;42.544;1.516;2024-02-26T03:28:51;4.37;89.83
72772;SHT30;60894;42.544;1.516;2024-02-26T03:31:20;4.33;90.45
72772;SHT30;60894;42.544;1.516;2024-02-26T03:33:47;4.40;90.24
72772;SHT30;60894;42.544;1.516;2024-02-26T03:36:14;4.46;90.30
72772;SHT30;60894;42.544;1.516;2024-02-26T03:38:41;4.52;90.10
72772;SHT30;60894;42.544;1.516;2024-02-26T03:41:07;4.52;90.42
72772;SHT30;60894;42.544;1.516;2024-02-26T03:43:35;4.33;89.76
72772;SHT30;60894;42.544;1.516;2024-02-26T03:46:02;4.44;89.92
72772;SHT30;60894;42.544;1.516;2024-02-26T03:48:30;4.43;89.82
72772;SHT30;60894;42.544;1.516;2024-02-26T03:50:57;4.33;90.20
72772;SHT30;60894;42.544;1.516;2024-02-26T03:53:24;4.37;90.10
72772;SHT30;60894;42.544;1.516;2024-02-26T03:55:51;4.43;89.83
72772;SHT30;60894;42.544;1.516;2024-02-26T03:58:18;4.53;90.00
72772;SHT30;60894;42.544;1.516;2024-02-26T04:00:45;4.50;89.14
72772;SHT30;60894;42.544;1.516;2024-02-26T04:03:13;4.46;89.55
72772;SHT30;60894;42.544;1.516;2024-02-26T04:05:41;4.40;89.54
72772;SHT30;60894;42.544;1.516;2024-02-26T04:08:08;4.42;90.26
72772;SHT30;60894;42.544;1.516;2024-02-26T04:10:36;4.50;88.83
72772;SHT30;60894;42.544;1.516;2024-02-26T04:13:04;4.49;88.93
72772;SHT30;60894;42.544;1.516;2024-02-26T04:15:31;4.49;88.26
72772;SHT30;60894;42.544;1.516;2024-02-26T04:17:58;4.44;90.74
72772;SHT30;60894;42.544;1.516;2024-02-26T04:20:25;4.50;90.98
72772;SHT30;60894;42.544;1.516;2024-02-26T04:22:54;4.49;89.86
72772;SHT30;60894;42.544;1.516;2024-02-26T04:25:21;4.43;89.48
72772;SHT30;60894;42.544;1.516;2024-02-26T04:27:47;4.52;90.13
72772;SHT30;60894;42.544;1.516;2024-02-26T04:30:14;4.60;90.20
72772;SHT30;60894;42.544;1.516;2024-02-26T04:32:42;4.64;90.18
72772;SHT30;60894;42.544;1.516;2024-02-26T04:35:10;4.57;90.55
72772;SHT30;60894;42.544;1.516;2024-02-26T04:37:37;4.61;90.56
72772;SHT30;60894;42.544;1.516;2024-02-26T04:40:06;4.63;90.21
72772;SHT30;60894;42.544;1.516;2024-02-26T04:42:33;4.57;89.87
72772;SHT30;60894;42.544;1.516;2024-02-26T04:45:00;4.42;90.05
72772;SHT30;60894;42.544;1.516;2024-02-26T04:47:27;4.34;89.75
72772;SHT30;60894;42.544;1.516;2024-02-26T04:49:55;4.42;89.93
72772;SHT30;60894;42.544;1.516;2024-02-26T04:52:22;4.50;89.96
72772;SHT30;60894;42.544;1.516;2024-02-26T04:54:49;4.46;89.49
72772;SHT30;60894;42.544;1.516;2024-02-26T04:57:17;4.39;90.58
72772;SHT30;60894;42.544;1.516;2024-02-26T04:59:44;4.39;90.48
72772;SHT30;60894;42.544;1.516;2024-02-26T05:02:11;4.42;90.10
72772;SHT30;60894;42.544;1.516;2024-02-26T05:04:38;4.50;90.70
72772;SHT30;60894;42.544;1.516;2024-02-26T05:07:05;4.47;90.23
72772;SHT30;60894;42.544;1.516;2024-02-26T05:09:32;4.39;90.15
72772;SHT30;60894;42.544;1.516;2024-02-26T05:11:59;4.29;90.44
72772;SHT30;60894;42.544;1.516;2024-02-26T05:14:27;4.29;90.74
72772;SHT30;60894;42.544;1.516;2024-02-26T05:16:54;4.30;90.87
72772;SHT30;60894;42.544;1.516;2024-02-26T05:19:21;4.37;90.24
72772;SHT30;60894;42.544;1.516;2024-02-26T05:21:48;4.42;90.26
72772;SHT30;60894;42.544;1.516;2024-02-26T05:24:16;4.44;89.86
72772;SHT30;60894;42.544;1.516;2024-02-26T05:26:43;4.56;89.91
72772;SHT30;60894;42.544;1.516;2024-02-26T05:29:10;4.50;89.50
72772;SHT30;60894;42.544;1.516;2024-02-26T05:31:38;4.43;89.38
72772;SHT30;60894;42.544;1.516;2024-02-26T05:34:05;4.44;89.66
72772;SHT30;60894;42.544;1.516;2024-02-26T05:36:32;4.46;89.50
72772;SHT30;60894;42.544;1.516;2024-02-26T05:38:59;4.47;89.20
72772;SHT30;60894;42.544;1.516;2024-02-26T05:41:26;4.49;89.61
72772;SHT30;60894;42.544;1.516;2024-02-26T05:43:53;4.54;89.75
72772;SHT30;60894;42.544;1.516;2024-02-26T05:46:21;4.53;89.32
72772;SHT30;60894;42.544;1.516;2024-02-26T05:48:51;4.56;89.37
72772;SHT30;60894;42.544;1.516;2024-02-26T05:51:18;4.63;88.89
72772;SHT30;60894;42.544;1.516;2024-02-26T05:53:44;4.64;88.67
72772;SHT30;60894;42.544;1.516;2024-02-26T05:56:12;4.71;88.35
72772;SHT30;60894;42.544;1.516;2024-02-26T05:58:39;4.73;88.66
72772;SHT30;60894;42.544;1.516;2024-02-26T06:01:06;4.77;88.56
72772;SHT30;60894;42.544;1.516;2024-02-26T06:03:33;4.71;89.72
72772;SHT30;60894;42.544;1.516;2024-02-26T06:06:01;4.71;89.45
72772;SHT30;60894;42.544;1.516;2024-02-26T06:08:28;4.68;90.04
72772;SHT30;60894;42.544;1.516;2024-02-26T06:10:55;4.68;90.38
72772;SHT30;60894;42.544;1.516;2024-02-26T06:13:21;4.71;89.73
72772;SHT30;60894;42.544;1.516;2024-02-26T06:15:48;4.57;90.54
72772;SHT30;60894;42.544;1.516;2024-02-26T06:18:15;4.71;90.54
72772;SHT30;60894;42.544;1.516;2024-02-26T06:20:42;4.64;90.39
72772;SHT30;60894;42.544;1.516;2024-02-26T06:23:12;4.65;90.54
72772;SHT30;60894;42.544;1.516;2024-02-26T06:25:39;4.71;89.95
72772;SHT30;60894;42.544;1.516;2024-02-26T06:28:07;4.73;90.03
72772;SHT30;60894;42.544;1.516;2024-02-26T06:30:33;4.73;89.26
72772;SHT30;60894;42.544;1.516;2024-02-26T06:33:01;4.80;89.60
72772;SHT30;60894;42.544;1.516;2024-02-26T06:35:28;4.84;89.26
72772;SHT30;60894;42.544;1.516;2024-02-26T06:37:55;4.78;90.10
72772;SHT30;60894;42.544;1.516;2024-02-26T06:40:23;4.70;90.15
72772;SHT30;60894;42.544;1.516;2024-02-26T06:42:51;4.61;90.75
72772;SHT30;60894;42.544;1.516;2024-02-26T06:45:18;4.61;91.07
72772;SHT30;60894;42.544;1.516;2024-02-26T06:47:45;4.60;90.85
72772;SHT30;60894;42.544;1.516;2024-02-26T06:50:12;4.63;90.84
72772;SHT30;60894;42.544;1.516;2024-02-26T06:52:40;4.49;89.96
72772;SHT30;60894;42.544;1.516;2024-02-26T06:55:07;4.60;89.77
72772;SHT30;60894;42.544;1.516;2024-02-26T06:57:35;4.63;89.54
72772;SHT30;60894;42.544;1.516;2024-02-26T07:00:03;4.74;89.92
72772;SHT30;60894;42.544;1.516;2024-02-26T07:02:30;4.80;90.21
72772;SHT30;60894;42.544;1.516;2024-02-26T07:04:57;4.89;89.85
72772;SHT30;60894;42.544;1.516;2024-02-26T07:07:24;4.88;89.58
72772;SHT30;60894;42.544;1.516;2024-02-26T07:09:51;4.91;89.57
72772;SHT30;60894;42.544;1.516;2024-02-26T07:12:18;4.80;88.54
72772;SHT30;60894;42.544;1.516;2024-02-26T07:14:48;4.88;88.54
72772;SHT30;60894;42.544;1.516;2024-02-26T07:17:15;4.92;89.31
72772;SHT30;60894;42.544;1.516;2024-02-26T07:19:42;5.02;89.01
72772;SHT30;60894;42.544;1.516;2024-02-26T07:22:09;5.07;89.15
72772;SHT30;60894;42.544;1.516;2024-02-26T07:24:36;5.01;89.17
72772;SHT30;60894;42.544;1.516;2024-02-26T07:27:03;5.04;88.11
72772;SHT30;60894;42.544;1.516;2024-02-26T07:29:30;5.19;87.51
72772;SHT30;60894;42.544;1.516;2024-02-26T07:31:59;5.26;87.28
72772;SHT30;60894;42.544;1.516;2024-02-26T07:34:26;5.05;87.95
72772;SHT30;60894;42.544;1.516;2024-02-26T07:36:55;5.02;87.74
72772;SHT30;60894;42.544;1.516;2024-02-26T07:39:22;5.12;87.92
72772;SHT30;60894;42.544;1.516;2024-02-26T07:41:49;5.08;87.54
72772;SHT30;60894;42.544;1.516;2024-02-26T07:44:18;5.16;87.04
72772;SHT30;60894;42.544;1.516;2024-02-26T07:46:45;5.18;86.87
72772;SHT30;60894;42.544;1.516;2024-02-26T07:49:13;5.14;88.07
72772;SHT30;60894;42.544;1.516;2024-02-26T07:51:40;5.18;87.18
72772;SHT30;60894;42.544;1.516;2024-02-26T07:54:07;5.15;87.47
72772;SHT30;60894;42.544;1.516;2024-02-26T07:56:34;5.15;86.63
72772;SHT30;60894;42.544;1.516;2024-02-26T07:59:01;5.21;86.48
72772;SHT30;60894;42.544;1.516;2024-02-26T08:01:28;5.21;85.60
72772;SHT30;60894;42.544;1.516;2024-02-26T08:03:55;5.08;83.73
72772;SHT30;60894;42.544;1.516;2024-02-26T08:06:23;5.11;83.51
72772;SHT30;60894;42.544;1.516;2024-02-26T08:08:50;4.92;83.97
72772;SHT30;60894;42.544;1.516;2024-02-26T08:11:18;5.04;84.83
72772;SHT30;60894;42.544;1.516;2024-02-26T08:13:45;5.04;84.36
72772;SHT30;60894;42.544;1.516;2024-02-26T08:16:12;4.98;84.67
72772;SHT30;60894;42.544;1.516;2024-02-26T08:18:39;5.15;84.73
72772;SHT30;60894;42.544;1.516;2024-02-26T08:21:06;5.21;83.88
72772;SHT30;60894;42.544;1.516;2024-02-26T08:23:35;5.39;83.91
72772;SHT30;60894;42.544;1.516;2024-02-26T08:26:02;5.38;83.67
72772;SHT30;60894;42.544;1.516;2024-02-26T08:28:32;5.36;83.70
72772;SHT30;60894;42.544;1.516;2024-02-26T08:30:59;5.34;83.43
72772;SHT30;60894;42.544;1.516;2024-02-26T08:33:27;5.46;83.88
72772;SHT30;60894;42.544;1.516;2024-02-26T08:35:54;5.43;83.97
72772;SHT30;60894;42.544;1.516;2024-02-26T08:38:21;5.39;83.64
72772;SHT30;60894;42.544;1.516;2024-02-26T08:40:49;5.45;84.02
72772;SHT30;60894;42.544;1.516;2024-02-26T08:43:16;5.43;82.67
72772;SHT30;60894;42.544;1.516;2024-02-26T08:45:44;5.46;81.95
72772;SHT30;60894;42.544;1.516;2024-02-26T08:48:11;5.55;83.45
72772;SHT30;60894;42.544;1.516;2024-02-26T08:50:38;5.65;82.81
72772;SHT30;60894;42.544;1.516;2024-02-26T08:53:05;5.85;82.80
72772;SHT30;60894;42.544;1.516;2024-02-26T08:55:33;5.89;83.81
72772;SHT30;60894;42.544;1.516;2024-02-26T08:58:01;5.94;82.68
72772;SHT30;60894;42.544;1.516;2024-02-26T09:00:28;5.73;80.55
72772;SHT30;60894;42.544;1.516;2024-02-26T09:02:55;5.73;80.34
72772;SHT30;60894;42.544;1.516;2024-02-26T09:05:22;5.63;80.59
72772;SHT30;60894;42.544;1.516;2024-02-26T09:07:48;5.69;81.39
72772;SHT30;60894;42.544;1.516;2024-02-26T09:10:17;5.69;80.88
72772;SHT30;60894;42.544;1.516;2024-02-26T09:12:44;5.78;82.77
72772;SHT30;60894;42.544;1.516;2024-02-26T09:15:12;5.98;83.28
72772;SHT30;60894;42.544;1.516;2024-02-26T09:17:39;6.17;81.95
72772;SHT30;60894;42.544;1.516;2024-02-26T09:20:07;6.31;81.49
72772;SHT30;60894;42.544;1.516;2024-02-26T09:22:34;6.72;81.15
72772;SHT30;60894;42.544;1.516;2024-02-26T09:25:04;7.11;79.58
72772;SHT30;60894;42.544;1.516;2024-02-26T09:27:32;7.13;79.20
72772;SHT30;60894;42.544;1.516;2024-02-26T09:29:58;7.64;78.66
72772;SHT30;60894;42.544;1.516;2024-02-26T09:32:27;7.85;77.58
72772;SHT30;60894;42.544;1.516;2024-02-26T09:34:54;8.32;74.46
72772;SHT30;60894;42.544;1.516;2024-02-26T09:37:21;8.82;73.46
72772;SHT30;60894;42.544;1.516;2024-02-26T09:39:47;8.94;73.83
72772;SHT30;60894;42.544;1.516;2024-02-26T09:42:17;9.23;74.47
72772;SHT30;60894;42.544;1.516;2024-02-26T09:44:45;9.57;70.77
72772;SHT30;60894;42.544;1.516;2024-02-26T09:47:12;9.70;70.74
72772;SHT30;60894;42.544;1.516;2024-02-26T09:49:44;9.86;69.53
72772;SHT30;60894;42.544;1.516;2024-02-26T09:52:14;10.35;66.73
72772;SHT30;60894;42.544;1.516;2024-02-26T09:54:41;10.69;66.67
72772;SHT30;60894;42.544;1.516;2024-02-26T09:57:10;10.62;65.54
72772;SHT30;60894;42.544;1.516;2024-02-26T09:59:41;10.65;66.56
72772;SHT30;60894;42.544;1.516;2024-02-26T10:02:11;10.38;66.27
72772;SHT30;60894;42.544;1.516;2024-02-26T10:04:39;10.14;66.87
72772;SHT30;60894;42.544;1.516;2024-02-26T10:07:10;9.77;65.59
72772;SHT30;60894;42.544;1.516;2024-02-26T10:09:37;9.56;69.81
72772;SHT30;60894;42.544;1.516;2024-02-26T10:12:05;9.31;68.50
72772;SHT30;60894;42.544;1.516;2024-02-26T10:14:33;8.98;69.77
72772;SHT30;60894;42.544;1.516;2024-02-26T10:17:00;8.67;70.16
72772;SHT30;60894;42.544;1.516;2024-02-26T10:19:28;8.20;71.76
72772;SHT30;60894;42.544;1.516;2024-02-26T10:21:59;8.16;73.33
72772;SHT30;60894;42.544;1.516;2024-02-26T10:24:29;8.51;72.32
72772;SHT30;60894;42.544;1.516;2024-02-26T10:26:56;9.07;70.15
72772;SHT30;60894;42.544;1.516;2024-02-26T10:29:24;9.22;66.69
72772;SHT30;60894;42.544;1.516;2024-02-26T10:31:52;9.32;66.86
72772;SHT30;60894;42.544;1.516;2024-02-26T10:34:19;9.66;66.80
72772;SHT30;60894;42.544;1.516;2024-02-26T10:36:46;10.41;65.21
72772;SHT30;60894;42.544;1.516;2024-02-26T10:39:13;10.91;61.32
72772;SHT30;60894;42.544;1.516;2024-02-26T10:41:43;11.50;60.12
72772;SHT30;60894;42.544;1.516;2024-02-26T10:44:11;11.35;59.90
72772;SHT30;60894;42.544;1.516;2024-02-26T10:46:40;11.20;61.37
72772;SHT30;60894;42.544;1.516;2024-02-26T10:49:13;10.88;61.75
72772;SHT30;60894;42.544;1.516;2024-02-26T10:51:44;11.28;59.30
72772;SHT30;60894;42.544;1.516;2024-02-26T10:54:15;11.65;56.76
72772;SHT30;60894;42.544;1.516;2024-02-26T10:56:46;11.64;55.23
72772;SHT30;60894;42.544;1.516;2024-02-26T10:59:14;11.53;55.81
72772;SHT30;60894;42.544;1.516;2024-02-26T11:01:47;11.67;56.18
72772;SHT30;60894;42.544;1.516;2024-02-26T11:04:16;11.24;57.99
72772;SHT30;60894;42.544;1.516;2024-02-26T11:06:44;10.55;58.07
72772;SHT30;60894;42.544;1.516;2024-02-26T11:09:13;10.25;59.44
72772;SHT30;60894;42.544;1.516;2024-02-26T11:11:41;9.62;60.45
72772;SHT30;60894;42.544;1.516;2024-02-26T11:14:09;9.46;62.77
72772;SHT30;60894;42.544;1.516;2024-02-26T11:16:39;9.64;60.86
72772;SHT30;60894;42.544;1.516;2024-02-26T11:19:09;9.50;62.52
72772;SHT30;60894;42.544;1.516;2024-02-26T11:21:36;9.40;61.69
72772;SHT30;60894;42.544;1.516;2024-02-26T11:24:09;9.15;59.14
72772;SHT30;60894;42.544;1.516;2024-02-26T11:26:40;9.19;60.66
72772;SHT30;60894;42.544;1.516;2024-02-26T11:29:14;8.94;57.98
72772;SHT30;60894;42.544;1.516;2024-02-26T11:31:42;8.87;58.38
72772;SHT30;60894;42.544;1.516;2024-02-26T11:34:10;8.92;58.46
72772;SHT30;60894;42.544;1.516;2024-02-26T11:36:38;8.80;59.81
72772;SHT30;60894;42.544;1.516;2024-02-26T11:39:06;8.88;59.48
72772;SHT30;60894;42.544;1.516;2024-02-26T11:41:33;8.87;60.01
72772;SHT30;60894;42.544;1.516;2024-02-26T11:44:01;8.57;60.78
72772;SHT30;60894;42.544;1.516;2024-02-26T11:46:32;8.63;59.73
72772;SHT30;60894;42.544;1.516;2024-02-26T11:49:01;8.57;59.25
72772;SHT30;60894;42.544;1.516;2024-02-26T11:51:32;8.59;59.89
72772;SHT30;60894;42.544;1.516;2024-02-26T11:53:59;8.67;59.79
72772;SHT30;60894;42.544;1.516;2024-02-26T11:56:26;8.65;59.11
72772;SHT30;60894;42.544;1.516;2024-02-26T11:59:01;8.67;57.92
72772;SHT30;60894;42.544;1.516;2024-02-26T12:01:45;8.67;59.76
72772;SHT30;60894;42.544;1.516;2024-02-26T12:04:17;9.22;58.72
72772;SHT30;60894;42.544;1.516;2024-02-26T12:06:51;9.54;55.73
72772;SHT30;60894;42.544;1.516;2024-02-26T12:09:31;9.76;55.33
72772;SHT30;60894;42.544;1.516;2024-02-26T12:11:59;10.27;55.44
72772;SHT30;60894;42.544;1.516;2024-02-26T12:14:26;10.91;54.33
72772;SHT30;60894;42.544;1.516;2024-02-26T12:16:55;11.45;51.71
72772;SHT30;60894;42.544;1.516;2024-02-26T12:19:24;11.71;49.28
72772;SHT30;60894;42.544;1.516;2024-02-26T12:21:52;12.39;48.67
72772;SHT30;60894;42.544;1.516;2024-02-26T12:24:20;13.08;47.87
72772;SHT30;60894;42.544;1.516;2024-02-26T12:26:47;12.80;45.41
72772;SHT30;60894;42.544;1.516;2024-02-26T12:29:14;12.87;45.55
72772;SHT30;60894;42.544;1.516;2024-02-26T12:31:42;13.34;46.00
72772;SHT30;60894;42.544;1.516;2024-02-26T12:34:11;13.44;44.79
72772;SHT30;60894;42.544;1.516;2024-02-26T12:36:39;12.98;44.47
72772;SHT30;60894;42.544;1.516;2024-02-26T12:39:07;12.87;43.53
72772;SHT30;60894;42.544;1.516;2024-02-26T12:41:35;12.97;44.27
72772;SHT30;60894;42.544;1.516;2024-02-26T12:44:02;13.38;44.67
72772;SHT30;60894;42.544;1.516;2024-02-26T12:46:29;13.52;42.22
72772;SHT30;60894;42.544;1.516;2024-02-26T12:48:56;12.84;43.70
72772;SHT30;60894;42.544;1.516;2024-02-26T12:51:26;12.19;44.76
72772;SHT30;60894;42.544;1.516;2024-02-26T12:53:55;11.88;47.49
72772;SHT30;60894;42.544;1.516;2024-02-26T12:56:23;11.82;46.94
72772;SHT30;60894;42.544;1.516;2024-02-26T12:58:51;11.55;46.60
72772;SHT30;60894;42.544;1.516;2024-02-26T13:01:21;11.55;46.40
72772;SHT30;60894;42.544;1.516;2024-02-26T13:03:49;11.26;48.43
72772;SHT30;60894;42.544;1.516;2024-02-26T13:06:17;11.27;48.81
72772;SHT30;60894;42.544;1.516;2024-02-26T13:08:45;10.96;48.27
72772;SHT30;60894;42.544;1.516;2024-02-26T13:11:12;10.61;50.82
72772;SHT30;60894;42.544;1.516;2024-02-26T13:13:39;10.34;51.56
72772;SHT30;60894;42.544;1.516;2024-02-26T13:16:09;10.20;53.20
72772;SHT30;60894;42.544;1.516;2024-02-26T13:18:36;10.22;55.00
72772;SHT30;60894;42.544;1.516;2024-02-26T13:21:08;10.04;54.47
72772;SHT30;60894;42.544;1.516;2024-02-26T13:23:35;9.70;54.41
72772;SHT30;60894;42.544;1.516;2024-02-26T13:26:04;9.25;57.37
72772;SHT30;60894;42.544;1.516;2024-02-26T13:28:31;9.21;56.28
72772;SHT30;60894;42.544;1.516;2024-02-26T13:31:00;9.05;57.55
72772;SHT30;60894;42.544;1.516;2024-02-26T13:33:28;8.88;58.12
72772;SHT30;60894;42.544;1.516;2024-02-26T13:35:57;8.78;59.06
72772;SHT30;60894;42.544;1.516;2024-02-26T13:38:24;8.77;59.81
72772;SHT30;60894;42.544;1.516;2024-02-26T13:40:52;8.71;62.80
72772;SHT30;60894;42.544;1.516;2024-02-26T13:43:20;8.54;59.68
72772;SHT30;60894;42.544;1.516;2024-02-26T13:45:47;8.41;60.58
72772;SHT30;60894;42.544;1.516;2024-02-26T13:48:17;8.33;60.91
72772;SHT30;60894;42.544;1.516;2024-02-26T13:50:44;8.16;61.60
72772;SHT30;60894;42.544;1.516;2024-02-26T13:53:12;8.05;62.55
72772;SHT30;60894;42.544;1.516;2024-02-26T13:55:40;8.16;63.09
72772;SHT30;60894;42.544;1.516;2024-02-26T13:58:08;8.28;62.58
72772;SHT30;60894;42.544;1.516;2024-02-26T14:00:39;8.20;62.65
72772;SHT30;60894;42.544;1.516;2024-02-26T14:03:07;8.02;63.05
72772;SHT30;60894;42.544;1.516;2024-02-26T14:05:34;7.79;64.62
72772;SHT30;60894;42.544;1.516;2024-02-26T14:08:00;7.86;64.86
72772;SHT30;60894;42.544;1.516;2024-02-26T14:10:28;7.68;65.79
72772;SHT30;60894;42.544;1.516;2024-02-26T14:12:55;7.50;67.68
72772;SHT30;60894;42.544;1.516;2024-02-26T14:15:22;7.50;68.21
72772;SHT30;60894;42.544;1.516;2024-02-26T14:17:52;7.57;66.54
72772;SHT30;60894;42.544;1.516;2024-02-26T14:20:22;7.50;66.37
72772;SHT30;60894;42.544;1.516;2024-02-26T14:22:49;7.65;66.81
72772;SHT30;60894;42.544;1.516;2024-02-26T14:25:17;7.57;67.98
72772;SHT30;60894;42.544;1.516;2024-02-26T14:27:45;7.50;66.47
72772;SHT30;60894;42.544;1.516;2024-02-26T14:30:12;7.55;65.89
72772;SHT30;60894;42.544;1.516;2024-02-26T14:32:39;7.69;66.81
72772;SHT30;60894;42.544;1.516;2024-02-26T14:35:08;7.71;66.60
72772;SHT30;60894;42.544;1.516;2024-02-26T14:37:35;7.69;67.11
72772;SHT30;60894;42.544;1.516;2024-02-26T14:40:03;7.81;67.58
72772;SHT30;60894;42.544;1.516;2024-02-26T14:42:31;7.75;68.24
72772;SHT30;60894;42.544;1.516;2024-02-26T14:44:58;7.78;68.33
72772;SHT30;60894;42.544;1.516;2024-02-26T14:47:25;7.38;68.93
72772;SHT30;60894;42.544;1.516;2024-02-26T14:49:52;7.21;70.48
72772;SHT30;60894;42.544;1.516;2024-02-26T14:52:20;7.17;71.94
72772;SHT30;60894;42.544;1.516;2024-02-26T14:54:48;7.10;72.78
72772;SHT30;60894;42.544;1.516;2024-02-26T14:57:16;7.11;71.92
72772;SHT30;60894;42.544;1.516;2024-02-26T14:59:44;7.35;71.84
72772;SHT30;60894;42.544;1.516;2024-02-26T15:02:11;7.28;68.92
72772;SHT30;60894;42.544;1.516;2024-02-26T15:04:38;7.27;70.61
72772;SHT30;60894;42.544;1.516;2024-02-26T15:07:04;7.72;69.46
72772;SHT30;60894;42.544;1.516;2024-02-26T15:09:34;7.44;65.93
72772;SHT30;60894;42.544;1.516;2024-02-26T15:12:01;7.69;66.22
72772;SHT30;60894;42.544;1.516;2024-02-26T15:14:30;7.74;63.69
72772;SHT30;60894;42.544;1.516;2024-02-26T15:16:57;8.06;63.25
72772;SHT30;60894;42.544;1.516;2024-02-26T15:19:24;7.96;62.62
72772;SHT30;60894;42.544;1.516;2024-02-26T15:21:52;8.37;61.41
72772;SHT30;60894;42.544;1.516;2024-02-26T15:24:19;8.23;61.16
72772;SHT30;60894;42.544;1.516;2024-02-26T15:26:47;8.84;60.76
72772;SHT30;60894;42.544;1.516;2024-02-26T15:29:14;9.35;59.49
72772;SHT30;60894;42.544;1.516;2024-02-26T15:31:41;9.94;59.07
72772;SHT30;60894;42.544;1.516;2024-02-26T15:34:08;9.64;57.22
72772;SHT30;60894;42.544;1.516;2024-02-26T15:36:35;9.19;56.36
72772;SHT30;60894;42.544;1.516;2024-02-26T15:39:02;8.94;57.59
72772;SHT30;60894;42.544;1.516;2024-02-26T15:41:30;9.04;56.85
72772;SHT30;60894;42.544;1.516;2024-02-26T15:43:58;8.87;57.05
72772;SHT30;60894;42.544;1.516;2024-02-26T15:46:26;8.87;57.79
72772;SHT30;60894;42.544;1.516;2024-02-26T15:48:52;8.92;58.45